Lowman, New York
Current Conditions -  °F | °C
As of 1:53 AM on Thursday 23 Oct 2014 (Local Time) from KELM Reporting Station
Overcast Overcast  
Wind Chill: 44°   Ceiling: 2400
Heat Index: 49°   Visibility: 10mi
Dew Point: 42°   Wind: 13mph
Humidity: 77%   Direction: 10°N
Pressure: 30.01"   Gusts: NA
Location:  42.03°N, 76.72°W
Report Text: KELM 230553Z AUTO 01011KT 10SM BKN024 OVC044 09/06 A3001 RMK AO2 SLP166 T00940056 10094 20089 56015
Loading
Personal Weather Stations






























Interactive Weather Map
Tropical Storm Tracking
New forecast layout! Learn more

10-Day Weather Forecast

Advertisements
Track Severe Weather on mobile